Gary Chicago International Airport
KGYY : now visible

Airfield :











YOU CAN JOIN US ON...

 
LOGIN :

Register | Disclaimer

   EN    FR    IT 

 









Legend :    VFR   Marginal VFR   IFR   Intensive IFR   Very Intensive IFR
Visi :
Ceiling :
>= 8 km
>= 3000ft
5 to 8 km
1000 to 3000 ft
1500m to 5 km
500 to 1000 ft
800 to 1500m
200 to 500 ft
< 800m
< 200 ft
Symbols :   Thunderstorms  Fog  Heavy snow  Heavy precipitations  Wind > 20 kt







- Airport Elevation : 591 ft
- IATA code : GYY


KGYY - Gary Chicago International

CURRENT METAR :
  • 221145Z 16004KT 10SM SCT250 14/02 A3010

EXPIRED METARs :
  • 221045Z 15006KT 10SM SCT250 13/03 A3009
  • 220945Z 17009KT 10SM SCT120 BKN250 13/03 A3008

TAF KGYY
Valid from the 22 at 12:00 until the 23 at 12:00 UTC


221120Z 2212/2312 16010KT P6SM SCT120 BKN250
FM221500 18013G22KT P6SM FEW100 BKN120
FM221900 19016G26KT P6SM SCT100 BKN200
FM222200 20016G26KT P6SM VCSH SCT060 BKN100
FM230800 24014G24KT P6SM SCT015 BKN022
FM231100 28013G23KT P6SM SCT010 OVC018
KZAU FIR / North America



MET'MAP, your aeronautical weather chart ! - Copyright ORBIFLY December 2007 - Disclaimer

ORBIFLY MET'MAP TEAM :

Programming & Development : Alexandra Zaïnal
Concept & Development : Baudouin d'Aumeries
Co-Development & Prog : Marc-Olivier Méhu
Technical & hardware support : Manuel Goepfert

Contact : metmap@orbifly.com




SOURCES & CREDITS :

   NOAA       Earth
Advisory